createdAt,value
2019-02-23T00:01:48.751Z,7.50
2019-02-23T00:03:58.400Z,7.50
2019-02-23T00:06:03.022Z,7.50
2019-02-23T00:08:08.309Z,7.50
2019-02-23T00:10:12.787Z,7.50
2019-02-23T00:12:17.308Z,7.40
2019-02-23T00:14:22.131Z,7.50
2019-02-23T00:16:27.122Z,7.40
2019-02-23T00:18:31.689Z,7.40
2019-02-23T00:20:36.854Z,7.40
2019-02-23T00:22:41.366Z,7.40
2019-02-23T00:24:46.271Z,7.40
2019-02-23T00:26:59.160Z,7.30
2019-02-23T00:29:06.529Z,7.30
2019-02-23T00:31:13.095Z,7.30
2019-02-23T00:33:21.026Z,7.20
2019-02-23T00:35:25.530Z,7.20
2019-02-23T00:37:30.430Z,7.20
2019-02-23T00:39:37.259Z,7.20
2019-02-23T00:41:42.464Z,7.20
2019-02-23T00:43:53.912Z,7.20
2019-02-23T00:45:59.657Z,7.20
2019-02-23T00:48:04.280Z,7.20
2019-02-23T00:50:11.822Z,7.20
2019-02-23T00:52:16.423Z,7.20
2019-02-23T00:54:21.831Z,7.10
2019-02-23T00:56:26.428Z,7.10
2019-02-23T00:58:31.118Z,7.10
2019-02-23T01:00:35.616Z,7.10
2019-02-23T01:02:40.400Z,7.10
2019-02-23T01:04:45.476Z,7.10
2019-02-23T01:06:50.940Z,7.10
2019-02-23T01:08:58.429Z,7.10
2019-02-23T01:11:03.130Z,7.10
2019-02-23T01:13:07.954Z,7.10
2019-02-23T01:15:15.880Z,7.00
2019-02-23T01:17:23.658Z,7.00
2019-02-23T01:19:28.372Z,7.00
2019-02-23T01:21:37.509Z,6.90
2019-02-23T01:23:47.688Z,7.00
2019-02-23T01:25:51.969Z,6.90
2019-02-23T01:27:57.384Z,6.90
2019-02-23T01:30:05.423Z,6.90
2019-02-23T01:32:09.932Z,6.80
2019-02-23T01:34:14.335Z,6.80
2019-02-23T01:36:18.931Z,6.80
2019-02-23T01:38:23.398Z,6.80
2019-02-23T01:40:28.249Z,6.80
2019-02-23T01:42:35.702Z,6.80
2019-02-23T01:44:40.239Z,6.70
2019-02-23T01:46:44.649Z,6.80
2019-02-23T01:48:49.132Z,6.70
2019-02-23T01:50:53.651Z,6.70
2019-02-23T01:53:07.794Z,6.70
2019-02-23T01:55:13.456Z,6.70
2019-02-23T01:57:17.814Z,6.70
2019-02-23T01:59:22.629Z,6.70
2019-02-23T02:01:27.160Z,6.60
2019-02-23T02:03:31.613Z,6.60
2019-02-23T02:05:36.087Z,6.60
2019-02-23T02:07:44.094Z,6.60
2019-02-23T02:09:53.318Z,6.50
2019-02-23T02:11:58.210Z,6.50
2019-02-23T02:14:02.736Z,6.50
2019-02-23T02:16:07.230Z,6.50
2019-02-23T02:18:15.483Z,6.50
2019-02-23T02:20:21.642Z,6.50
2019-02-23T02:22:28.350Z,6.50
2019-02-23T02:24:34.192Z,6.60
2019-02-23T02:26:43.310Z,6.50
2019-02-23T02:28:51.441Z,6.50
2019-02-23T02:30:59.089Z,6.60
2019-02-23T02:33:04.800Z,6.50
2019-02-23T02:35:12.065Z,6.50
2019-02-23T02:37:16.578Z,6.50
2019-02-23T02:39:28.341Z,6.50
2019-02-23T02:41:35.657Z,6.60
2019-02-23T02:43:40.967Z,6.60
2019-02-23T02:45:48.161Z,6.70
2019-02-23T02:47:52.703Z,6.70
2019-02-23T02:49:57.469Z,6.80
2019-02-23T02:52:09.905Z,6.80
2019-02-23T02:54:14.410Z,6.80
2019-02-23T02:56:28.733Z,6.80
2019-02-23T02:58:33.325Z,6.70
2019-02-23T03:00:40.413Z,6.70
2019-02-23T03:02:45.018Z,6.70
2019-02-23T03:04:53.293Z,6.70
2019-02-23T03:06:59.817Z,6.80
2019-02-23T03:09:06.024Z,6.70
2019-02-23T03:11:10.736Z,6.70
2019-02-23T03:13:16.799Z,6.70
2019-02-23T03:15:26.931Z,6.70
2019-02-23T03:17:32.506Z,6.70
2019-02-23T03:19:40.293Z,6.70
2019-02-23T03:21:47.799Z,6.70
2019-02-23T03:23:55.700Z,6.70
2019-02-23T03:26:00.360Z,6.70
2019-02-23T03:28:04.987Z,6.70
2019-02-23T03:30:12.118Z,6.70
2019-02-23T03:32:17.585Z,6.70
2019-02-23T03:34:23.848Z,6.70
2019-02-23T03:36:31.709Z,6.70
2019-02-23T03:38:45.502Z,6.60
2019-02-23T03:40:50.163Z,6.60
2019-02-23T03:42:56.594Z,6.70
2019-02-23T03:45:04.924Z,6.70
2019-02-23T03:47:10.365Z,6.60
2019-02-23T03:49:17.715Z,6.60
2019-02-23T03:51:22.461Z,6.60
2019-02-23T03:53:27.378Z,6.60
2019-02-23T03:55:32.338Z,6.60
2019-02-23T03:57:36.752Z,6.50
2019-02-23T03:59:41.200Z,6.50
2019-02-23T04:01:45.594Z,6.50
2019-02-23T04:03:50.581Z,6.50
2019-02-23T04:05:55.403Z,6.40
2019-02-23T04:08:00.139Z,6.40
2019-02-23T04:10:05.825Z,6.40
2019-02-23T04:12:10.352Z,6.40
2019-02-23T04:14:25.450Z,6.40
2019-02-23T04:16:30.274Z,6.40
2019-02-23T04:18:34.831Z,6.50
2019-02-23T04:20:39.731Z,6.50
2019-02-23T04:22:44.147Z,6.40
2019-02-23T04:24:49.165Z,6.40
2019-02-23T04:26:53.662Z,6.30
2019-02-23T04:28:58.396Z,6.30
2019-02-23T04:31:03.140Z,6.30
2019-02-23T04:33:11.610Z,6.30
2019-02-23T04:35:16.143Z,6.20
2019-02-23T04:37:21.113Z,6.20
2019-02-23T04:39:27.451Z,6.20
2019-02-23T04:41:31.946Z,6.10
2019-02-23T04:43:36.367Z,6.10
2019-02-23T04:45:41.892Z,6.10
2019-02-23T04:47:46.357Z,6.10
2019-02-23T04:49:55.437Z,6.10
2019-02-23T04:51:59.884Z,6.00
2019-02-23T04:54:04.495Z,6.00
2019-02-23T04:56:09.463Z,6.00
2019-02-23T04:58:14.878Z,6.00
2019-02-23T05:00:19.360Z,6.10
2019-02-23T05:02:23.929Z,6.10
2019-02-23T05:04:28.522Z,6.00
2019-02-23T05:06:33.110Z,6.00
2019-02-23T05:08:38.449Z,5.90
2019-02-23T05:10:43.002Z,5.90
2019-02-23T05:12:47.362Z,5.90
2019-02-23T05:14:52.006Z,5.90
2019-02-23T05:16:56.454Z,6.00
2019-02-23T05:19:01.347Z,6.00
2019-02-23T05:21:05.880Z,6.00
2019-02-23T05:23:10.554Z,6.00
2019-02-23T05:25:15.037Z,6.00
2019-02-23T05:27:19.538Z,5.90
2019-02-23T05:29:23.951Z,6.00
2019-02-23T05:31:28.580Z,5.90
2019-02-23T05:33:34.022Z,5.90
2019-02-23T05:35:38.832Z,5.80
2019-02-23T05:37:43.502Z,5.80
2019-02-23T05:39:47.959Z,5.90
2019-02-23T05:41:52.792Z,5.90
2019-02-23T05:43:57.258Z,5.80
2019-02-23T05:46:01.720Z,5.80
2019-02-23T05:48:06.614Z,5.80
2019-02-23T05:50:11.168Z,5.70
2019-02-23T05:52:15.751Z,5.70
2019-02-23T05:54:20.337Z,5.80
2019-02-23T05:56:25.823Z,5.80
2019-02-23T05:58:30.583Z,5.80
2019-02-23T06:00:35.115Z,5.80
2019-02-23T06:02:40.542Z,5.70
2019-02-23T06:04:45.814Z,5.70
2019-02-23T06:06:50.340Z,5.70
2019-02-23T06:08:57.925Z,5.70
2019-02-23T06:11:07.456Z,5.70
2019-02-23T06:13:15.427Z,5.60
2019-02-23T06:15:20.083Z,5.60
2019-02-23T06:17:26.880Z,5.60
2019-02-23T06:19:32.055Z,5.60
2019-02-23T06:21:52.367Z,5.60
2019-02-23T06:23:45.586Z,5.50
2019-02-23T06:25:51.498Z,5.50
2019-02-23T06:28:01.463Z,5.50
2019-02-23T06:30:09.311Z,5.50
2019-02-23T06:32:15.195Z,5.60
2019-02-23T06:34:22.837Z,5.40
2019-02-23T06:36:28.746Z,5.50
2019-02-23T06:38:33.169Z,5.60
2019-02-23T06:40:38.027Z,5.60
2019-02-23T06:42:44.111Z,5.60
2019-02-23T06:44:49.264Z,5.70
2019-02-23T06:46:55.800Z,5.70
2019-02-23T06:49:00.525Z,5.70
2019-02-23T06:51:07.545Z,5.80
2019-02-23T06:53:13.715Z,5.70
2019-02-23T06:55:19.351Z,5.70
2019-02-23T06:57:26.222Z,5.70
2019-02-23T06:59:33.680Z,5.70
2019-02-23T07:01:38.194Z,5.70
2019-02-23T07:03:43.012Z,5.60
2019-02-23T07:05:48.743Z,5.60
2019-02-23T07:07:53.367Z,5.60
2019-02-23T07:09:59.534Z,5.60
2019-02-23T07:12:05.731Z,5.50
2019-02-23T07:14:19.472Z,5.50
2019-02-23T07:16:24.741Z,5.50
2019-02-23T07:18:34.768Z,5.60
2019-02-23T07:20:44.239Z,5.60
2019-02-23T07:22:50.450Z,5.60
2019-02-23T07:24:56.927Z,5.60
2019-02-23T07:27:02.368Z,5.50
2019-02-23T07:29:16.428Z,5.50
2019-02-23T07:31:25.939Z,5.50
2019-02-23T07:33:33.345Z,5.40
2019-02-23T07:35:43.163Z,5.40
2019-02-23T07:37:47.897Z,5.50
2019-02-23T07:39:55.270Z,5.60
2019-02-23T07:42:01.535Z,5.50
2019-02-23T07:44:07.019Z,5.60
2019-02-23T07:46:12.507Z,5.60
2019-02-23T07:48:19.607Z,5.70
2019-02-23T07:50:27.434Z,5.70
2019-02-23T07:52:34.587Z,5.60
2019-02-23T07:54:43.222Z,5.70
2019-02-23T07:56:49.484Z,5.70
2019-02-23T07:58:58.721Z,5.70
2019-02-23T08:01:07.085Z,5.70
2019-02-23T08:03:12.601Z,5.60
2019-02-23T08:05:17.604Z,5.50
2019-02-23T08:07:23.578Z,5.50
2019-02-23T08:09:28.168Z,5.60
2019-02-23T08:11:32.625Z,5.60
2019-02-23T08:13:40.613Z,5.70
2019-02-23T08:15:47.256Z,5.70
2019-02-23T08:17:52.212Z,5.80
2019-02-23T08:19:58.479Z,5.80
2019-02-23T08:22:02.909Z,5.80
2019-02-23T08:24:09.901Z,5.90
2019-02-23T08:26:15.213Z,5.90
2019-02-23T08:28:20.169Z,5.90
2019-02-23T08:30:24.817Z,5.90
2019-02-23T08:32:31.133Z,6.00
2019-02-23T08:34:35.855Z,6.00
2019-02-23T08:36:42.804Z,6.00
2019-02-23T08:38:49.387Z,6.10
2019-02-23T08:40:53.606Z,6.10
2019-02-23T08:42:57.996Z,6.10
2019-02-23T08:45:05.205Z,6.10
2019-02-23T08:47:11.027Z,6.10
2019-02-23T08:49:16.007Z,6.10
2019-02-23T08:51:22.267Z,6.20
2019-02-23T08:53:30.400Z,6.20
2019-02-23T08:55:35.204Z,6.20
2019-02-23T08:57:39.814Z,6.20
2019-02-23T08:59:44.800Z,6.30
2019-02-23T09:01:54.276Z,6.40
2019-02-23T09:03:59.683Z,6.50
2019-02-23T09:06:05.496Z,6.40
2019-02-23T09:08:10.887Z,6.40
2019-02-23T09:10:42.237Z,6.40
2019-02-23T09:12:51.037Z,6.50
2019-02-23T09:14:55.946Z,6.60
2019-02-23T09:17:06.983Z,6.60
2019-02-23T09:19:11.567Z,6.60
2019-02-23T09:21:20.217Z,6.60
2019-02-23T09:23:30.565Z,6.60
2019-02-23T09:25:38.264Z,6.60
2019-02-23T09:27:42.856Z,6.70
2019-02-23T09:29:52.580Z,6.80
2019-02-23T09:31:57.341Z,6.80
2019-02-23T09:34:02.885Z,6.90
2019-02-23T09:36:10.863Z,6.90
2019-02-23T09:38:16.233Z,6.80
2019-02-23T09:40:21.709Z,6.80
2019-02-23T09:42:26.215Z,6.90
2019-02-23T09:44:31.305Z,7.00
2019-02-23T09:46:36.187Z,7.10
2019-02-23T09:48:40.771Z,7.20
2019-02-23T09:50:45.328Z,7.30
2019-02-23T09:52:50.669Z,7.30
2019-02-23T09:55:03.556Z,7.30
2019-02-23T09:57:08.503Z,7.40
2019-02-23T09:59:13.254Z,7.50
2019-02-23T10:01:18.162Z,7.50
2019-02-23T10:03:24.695Z,7.60
2019-02-23T10:05:32.126Z,7.60
2019-02-23T10:07:38.711Z,7.60
2019-02-23T10:09:46.004Z,7.80
2019-02-23T10:11:50.880Z,7.80
2019-02-23T10:13:58.210Z,7.80
2019-02-23T10:16:04.283Z,7.80
2019-02-23T10:18:14.893Z,7.70
2019-02-23T10:20:20.493Z,7.90
2019-02-23T10:22:27.560Z,8.00
2019-02-23T10:24:32.319Z,8.00
2019-02-23T10:26:38.610Z,8.10
2019-02-23T10:28:43.471Z,8.10
2019-02-23T10:30:48.277Z,8.20
2019-02-23T10:32:53.264Z,8.30
2019-02-23T10:34:59.458Z,8.30
2019-02-23T10:37:04.324Z,8.20
2019-02-23T10:39:09.515Z,8.40
2019-02-23T10:41:14.475Z,8.50
2019-02-23T10:43:19.068Z,8.70
2019-02-23T10:45:23.982Z,8.70
2019-02-23T10:47:28.645Z,8.70
2019-02-23T10:49:33.057Z,8.70
2019-02-23T10:51:38.095Z,8.80
2019-02-23T10:53:42.636Z,8.90
2019-02-23T10:55:48.683Z,8.90
2019-02-23T10:57:53.724Z,9.00
2019-02-23T10:59:58.618Z,9.10
2019-02-23T11:02:03.911Z,9.10
2019-02-23T11:04:10.676Z,9.20
2019-02-23T11:06:16.376Z,9.30
2019-02-23T11:08:42.638Z,9.40
2019-02-23T11:10:47.723Z,9.40
2019-02-23T11:12:57.039Z,9.50
2019-02-23T11:15:01.510Z,9.40
2019-02-23T11:17:06.077Z,9.50
2019-02-23T11:19:12.804Z,9.60
2019-02-23T11:21:18.976Z,9.60
2019-02-23T11:23:23.935Z,9.70
2019-02-23T11:25:30.861Z,9.80
2019-02-23T11:27:35.760Z,9.90
2019-02-23T11:29:41.756Z,9.80
2019-02-23T11:31:48.183Z,10.00
2019-02-23T11:33:54.190Z,10.00
2019-02-23T11:36:00.480Z,10.20
2019-02-23T11:38:05.107Z,10.20
2019-02-23T11:40:11.682Z,10.30
2019-02-23T11:42:19.556Z,10.40
2019-02-23T11:44:26.047Z,10.30
2019-02-23T11:46:30.614Z,10.50
2019-02-23T11:48:35.052Z,10.50
2019-02-23T11:50:40.444Z,10.70
2019-02-23T11:52:48.324Z,10.70
2019-02-23T11:54:59.644Z,10.80
2019-02-23T11:57:05.324Z,10.90
2019-02-23T11:59:14.650Z,11.10
2019-02-23T12:01:19.734Z,11.10
2019-02-23T12:03:24.517Z,11.10
2019-02-23T12:05:33.865Z,11.10
2019-02-23T12:07:38.375Z,11.20
2019-02-23T12:09:42.789Z,11.30
2019-02-23T12:11:47.502Z,11.30
2019-02-23T12:13:52.060Z,11.30
2019-02-23T12:15:57.468Z,11.20
2019-02-23T12:18:02.059Z,11.30
2019-02-23T12:20:06.994Z,11.30
2019-02-23T12:22:14.729Z,11.30
2019-02-23T12:24:22.030Z,11.30
2019-02-23T12:26:28.977Z,11.40
2019-02-23T12:28:33.449Z,11.40
2019-02-23T12:30:38.045Z,11.50
2019-02-23T12:32:45.527Z,11.50
2019-02-23T12:34:52.510Z,11.60
2019-02-23T12:36:57.699Z,11.60
2019-02-23T12:39:02.921Z,11.70
2019-02-23T12:41:08.842Z,11.70
2019-02-23T12:43:15.107Z,11.70
2019-02-23T12:45:19.685Z,11.70
2019-02-23T12:47:24.261Z,11.60
2019-02-23T12:49:29.054Z,11.50
2019-02-23T12:51:33.948Z,11.50
2019-02-23T12:53:41.395Z,11.60
2019-02-23T12:55:48.802Z,11.50
2019-02-23T12:57:53.547Z,11.50
2019-02-23T12:59:58.869Z,11.40
2019-02-23T13:02:03.321Z,11.50
2019-02-23T13:04:08.293Z,11.60
2019-02-23T13:06:12.764Z,11.60
2019-02-23T13:08:17.198Z,11.70
2019-02-23T13:10:21.718Z,11.70
2019-02-23T13:12:40.832Z,11.80
2019-02-23T13:14:59.888Z,11.90
2019-02-23T13:17:23.767Z,11.90
2019-02-23T13:20:07.583Z,12.00
2019-02-23T13:22:44.724Z,12.20
2019-02-23T13:25:36.208Z,12.30
2019-02-23T13:28:18.688Z,12.40
2019-02-23T13:31:05.672Z,12.50
2019-02-23T13:33:38.969Z,12.60
2019-02-23T13:36:10.268Z,12.60
2019-02-23T13:38:47.371Z,12.50
2019-02-23T13:41:48.343Z,12.50
2019-02-23T13:44:39.169Z,12.50
2019-02-23T13:47:16.071Z,12.40
2019-02-23T13:49:50.445Z,12.40
2019-02-23T13:52:30.417Z,12.40
2019-02-23T13:55:18.233Z,12.50
2019-02-23T13:57:59.937Z,12.40
2019-02-23T14:00:30.656Z,12.40
2019-02-23T14:03:15.736Z,12.50
2019-02-23T14:06:04.497Z,12.40
2019-02-23T14:09:14.549Z,12.50
2019-02-23T14:12:16.521Z,12.50
2019-02-23T14:15:08.345Z,12.30
2019-02-23T14:17:51.804Z,12.30
2019-02-23T14:20:36.578Z,12.40
2019-02-23T14:23:27.516Z,12.40
2019-02-23T14:26:31.035Z,12.40
2019-02-23T14:28:50.413Z,12.50
2019-02-23T14:31:47.575Z,12.60
2019-02-23T14:34:36.074Z,12.50
2019-02-23T14:37:17.728Z,12.50
2019-02-23T14:39:57.780Z,12.70
2019-02-23T14:42:26.258Z,12.50
2019-02-23T14:44:50.031Z,12.50
2019-02-23T14:47:35.746Z,12.40
2019-02-23T14:50:20.229Z,12.40
2019-02-23T14:53:06.338Z,12.30
2019-02-23T14:55:39.646Z,12.40
2019-02-23T14:58:23.411Z,12.40
2019-02-23T15:01:15.452Z,12.30
2019-02-23T15:04:08.972Z,12.30
2019-02-23T15:06:29.993Z,12.40
2019-02-23T15:09:00.872Z,12.30
2019-02-23T15:11:41.054Z,12.40
2019-02-23T15:14:37.879Z,12.40
2019-02-23T15:16:59.177Z,12.40
2019-02-23T15:19:34.437Z,12.30
2019-02-23T15:21:58.479Z,12.40
2019-02-23T15:24:30.290Z,12.30
2019-02-23T15:27:27.372Z,12.30
2019-02-23T15:29:51.175Z,12.40
2019-02-23T15:32:15.906Z,12.30
2019-02-23T15:35:01.425Z,12.30
2019-02-23T15:37:30.650Z,12.30
2019-02-23T15:40:20.281Z,12.50
2019-02-23T15:43:02.563Z,12.30
2019-02-23T15:45:47.938Z,12.20
2019-02-23T15:48:21.767Z,12.10
2019-02-23T15:50:26.642Z,12.00
2019-02-23T15:52:31.597Z,12.00
2019-02-23T15:54:36.569Z,11.90
2019-02-23T15:56:41.612Z,11.80
2019-02-23T15:58:46.410Z,11.80
2019-02-23T16:00:51.783Z,11.80
2019-02-23T16:02:56.487Z,11.80
2019-02-23T16:05:01.433Z,11.80
2019-02-23T16:07:06.995Z,11.70
2019-02-23T16:09:13.572Z,11.70
2019-02-23T16:11:20.268Z,11.60
2019-02-23T16:13:25.869Z,11.50
2019-02-23T16:15:30.603Z,11.60
2019-02-23T16:17:35.540Z,11.50
2019-02-23T16:19:40.057Z,11.50
2019-02-23T16:21:44.627Z,11.40
2019-02-23T16:23:49.602Z,11.40
2019-02-23T16:25:54.252Z,11.40
2019-02-23T16:27:59.206Z,11.30
2019-02-23T16:30:04.150Z,11.10
2019-02-23T16:32:09.431Z,11.00
2019-02-23T16:34:14.148Z,11.00
2019-02-23T16:36:19.298Z,11.00
2019-02-23T16:38:24.216Z,10.90
2019-02-23T16:40:29.084Z,10.90
2019-02-23T16:42:34.479Z,10.90
2019-02-23T16:44:41.004Z,10.80
2019-02-23T16:46:47.512Z,10.70
2019-02-23T16:48:52.809Z,10.60
2019-02-23T16:50:58.445Z,10.60
2019-02-23T16:53:04.027Z,10.40
2019-02-23T16:55:09.836Z,10.40
2019-02-23T16:57:17.328Z,10.30
2019-02-23T16:59:21.536Z,10.20
2019-02-23T17:01:27.035Z,10.10
2019-02-23T17:03:32.236Z,10.10
2019-02-23T17:05:37.306Z,10.10
2019-02-23T17:07:42.786Z,10.00
2019-02-23T17:09:48.125Z,10.00
2019-02-23T17:11:54.455Z,10.00
2019-02-23T17:13:59.871Z,9.90
2019-02-23T17:16:07.119Z,9.90
2019-02-23T17:18:12.011Z,9.90
2019-02-23T17:20:17.166Z,9.80
2019-02-23T17:22:22.665Z,9.70
2019-02-23T17:24:28.935Z,9.60
2019-02-23T17:26:36.700Z,9.60
2019-02-23T17:28:40.415Z,9.50
2019-02-23T17:30:45.194Z,9.50
2019-02-23T17:32:50.127Z,9.50
2019-02-23T17:34:55.018Z,9.40
2019-02-23T17:37:04.525Z,9.40
2019-02-23T17:39:10.865Z,9.30
2019-02-23T17:41:15.421Z,9.30
2019-02-23T17:43:20.126Z,9.30
2019-02-23T17:45:25.168Z,9.20
2019-02-23T17:47:30.320Z,9.10
2019-02-23T17:49:36.608Z,9.10
2019-02-23T17:51:41.352Z,9.00
2019-02-23T17:53:46.563Z,9.00
2019-02-23T17:55:52.238Z,8.90
2019-02-23T17:57:57.120Z,8.80
2019-02-23T18:00:01.915Z,8.80
2019-02-23T18:02:07.725Z,8.80
2019-02-23T18:04:13.364Z,8.80
2019-02-23T18:06:18.206Z,8.70
2019-02-23T18:08:23.105Z,8.70
2019-02-23T18:10:27.916Z,8.70
2019-02-23T18:12:32.761Z,8.60
2019-02-23T18:14:37.509Z,8.50
2019-02-23T18:16:42.430Z,8.60
2019-02-23T18:18:50.122Z,8.60
2019-02-23T18:20:55.993Z,8.50
2019-02-23T18:23:00.564Z,8.50
2019-02-23T18:25:05.148Z,8.50
2019-02-23T18:27:09.652Z,8.40
2019-02-23T18:29:14.283Z,8.50
2019-02-23T18:31:32.242Z,8.40
2019-02-23T18:33:40.036Z,8.30
2019-02-23T18:35:45.300Z,8.30
2019-02-23T18:37:49.667Z,8.20
2019-02-23T18:39:54.480Z,8.20
2019-02-23T18:42:02.016Z,8.20
2019-02-23T18:44:11.929Z,8.10
2019-02-23T18:46:17.175Z,8.10
2019-02-23T18:48:27.547Z,8.00
2019-02-23T18:50:33.568Z,8.00
2019-02-23T18:52:38.219Z,8.00
2019-02-23T18:55:03.631Z,8.00
2019-02-23T18:57:12.308Z,7.90
2019-02-23T18:59:17.581Z,7.90
2019-02-23T19:01:23.265Z,7.90
2019-02-23T19:03:29.983Z,7.90
2019-02-23T19:05:49.530Z,7.80
2019-02-23T19:07:47.976Z,7.90
2019-02-23T19:09:56.231Z,7.80
2019-02-23T19:12:01.775Z,7.80
2019-02-23T19:14:08.895Z,7.80
2019-02-23T19:16:13.796Z,7.90
2019-02-23T19:18:28.531Z,7.90
2019-02-23T19:20:37.665Z,7.90
2019-02-23T19:28:33.666Z,8.00
2019-02-23T19:31:05.020Z,8.00
2019-02-23T19:33:16.824Z,7.90
2019-02-23T19:35:35.050Z,7.90
2019-02-23T19:37:43.425Z,7.90
2019-02-23T19:40:25.237Z,7.80
2019-02-23T19:42:33.471Z,7.80
2019-02-23T19:44:41.435Z,7.70
2019-02-23T19:47:23.898Z,7.70
2019-02-23T19:49:41.473Z,7.70
2019-02-23T19:55:11.256Z,7.60
2019-02-23T19:58:06.783Z,7.60
2019-02-23T20:00:30.623Z,7.60
2019-02-23T20:03:00.824Z,7.50
2019-02-23T20:05:36.108Z,7.50
2019-02-23T20:10:53.171Z,7.40
2019-02-23T20:13:23.969Z,7.40
2019-02-23T20:15:43.398Z,7.40
2019-02-23T20:18:23.807Z,7.30
2019-02-23T20:20:50.887Z,7.30
2019-02-23T20:23:24.689Z,7.20
2019-02-23T20:32:10.529Z,7.30
2019-02-23T20:34:31.828Z,7.20
2019-02-23T20:37:05.141Z,7.10
2019-02-23T20:39:16.700Z,7.10
2019-02-23T20:41:28.181Z,7.00
2019-02-23T20:43:42.112Z,7.00
2019-02-23T20:45:55.483Z,7.00
2019-02-23T20:50:54.058Z,7.00
2019-02-23T20:53:08.372Z,7.00
2019-02-23T20:55:17.817Z,7.00
2019-02-23T20:57:36.480Z,6.90
2019-02-23T20:59:54.496Z,6.90
2019-02-23T21:02:01.425Z,6.90
2019-02-23T21:04:28.983Z,6.80
2019-02-23T21:06:58.451Z,6.90
2019-02-23T21:09:19.402Z,6.90
2019-02-23T21:11:41.441Z,6.80
2019-02-23T21:14:01.226Z,6.70
2019-02-23T21:16:57.118Z,6.70
2019-02-23T21:19:08.365Z,6.70
2019-02-23T21:21:30.792Z,6.70
2019-02-23T21:23:36.400Z,6.60
2019-02-23T21:25:46.501Z,6.50
2019-02-23T21:27:54.315Z,6.50
2019-02-23T21:30:10.108Z,6.50
2019-02-23T21:32:29.859Z,6.50
2019-02-23T21:34:40.003Z,6.60
2019-02-23T21:37:06.512Z,6.60
2019-02-23T21:39:12.078Z,6.60
2019-02-23T21:41:18.851Z,6.50
2019-02-23T21:43:26.428Z,6.50
2019-02-23T21:45:30.850Z,6.40
2019-02-23T21:47:37.041Z,6.40
2019-02-23T21:49:42.710Z,6.50
2019-02-23T21:51:47.188Z,6.50
2019-02-23T21:53:56.145Z,6.50
2019-02-23T21:56:13.655Z,6.50
2019-02-23T21:58:19.145Z,6.50
2019-02-23T22:00:47.005Z,6.60
2019-02-23T22:02:55.050Z,6.50
2019-02-23T22:05:02.162Z,6.50
2019-02-23T22:07:07.319Z,6.50
2019-02-23T22:09:11.882Z,6.50
2019-02-23T22:11:16.206Z,6.40
2019-02-23T22:13:20.736Z,6.50
2019-02-23T22:15:26.372Z,6.50
2019-02-23T22:17:31.570Z,6.60
2019-02-23T22:19:37.361Z,6.50
2019-02-23T22:21:43.845Z,6.50
2019-02-23T22:23:50.577Z,6.50
2019-02-23T22:25:58.546Z,6.50
2019-02-23T22:28:05.184Z,6.50
2019-02-23T22:30:13.068Z,6.60
2019-02-23T22:32:21.162Z,6.50
2019-02-23T22:34:28.288Z,6.50
2019-02-23T22:36:34.907Z,6.50
2019-02-23T22:38:40.560Z,6.50
2019-02-23T22:40:45.110Z,6.50
2019-02-23T22:42:49.554Z,6.50
2019-02-23T22:44:53.966Z,6.50
2019-02-23T22:46:59.470Z,6.50
2019-02-23T22:49:04.124Z,6.50
2019-02-23T22:51:11.170Z,6.40
2019-02-23T22:53:16.107Z,6.40
2019-02-23T22:55:21.947Z,6.40
2019-02-23T22:57:26.655Z,6.50
2019-02-23T22:59:31.270Z,6.50
2019-02-23T23:01:36.952Z,6.50
2019-02-23T23:03:41.476Z,6.40
2019-02-23T23:05:46.031Z,6.40
2019-02-23T23:07:50.538Z,6.40
2019-02-23T23:09:57.818Z,6.40
2019-02-23T23:12:02.856Z,6.30
2019-02-23T23:14:07.355Z,6.40
2019-02-23T23:16:11.859Z,6.40
2019-02-23T23:18:16.295Z,6.30
2019-02-23T23:20:20.723Z,6.40
2019-02-23T23:22:25.167Z,6.40
2019-02-23T23:24:29.822Z,6.40
2019-02-23T23:26:37.135Z,6.30
2019-02-23T23:28:46.571Z,6.30
2019-02-23T23:30:51.119Z,6.30
2019-02-23T23:32:56.092Z,6.20
2019-02-23T23:35:12.683Z,6.10
2019-02-23T23:37:17.275Z,6.20
2019-02-23T23:39:22.420Z,6.10
2019-02-23T23:41:27.282Z,6.10
2019-02-23T23:43:32.117Z,6.10
2019-02-23T23:45:37.820Z,6.10
2019-02-23T23:47:42.384Z,5.90
2019-02-23T23:49:46.926Z,6.00
2019-02-23T23:51:51.741Z,5.90
2019-02-23T23:53:56.202Z,5.90
2019-02-23T23:56:09.547Z,5.90
2019-02-23T23:58:14.355Z,5.80
